Kansas City, Missouri
Traffic Map
Current Weather Conditions
Kansas City, Missouri
Overcast
Overcast
39°
Feels Like: 33°
Wind Chill: 33° Ceiling: 7500
Heat Index: 39° Visibility: 10mi
Dew Point: 20° Wind: 9mph
Humidity: 46% Direction: 220° (SW)
Pressure: 30.02in Gusts: 0mph
Raw Report DataKMKC 261254Z 22008KT 10SM OVC075 04/M07 A3002 RMK AO2 SLP171 T00391067
Traffic Incident Summary
Active as of:
Severity:
Category:
InformationThere was an issue retrieving the traffic information for this location. Please try a different location or try again shortly.
Advertisements
Track Severe Weather on mobile